Brilliance Of The Seas — C6SJ5 — position and weather

sailwx.info

Track history (hours):
 
Tides and Currents Weather Stations Pressure Air Temp Water Temp Dewpoint Dewpoint Depression Visibility Wind Speed Wind Dir Waves Ship Positions

Brilliance Of The Seas

Operator: Royal Caribbean Cruises Ltd

Last reported at 2015-Jul-01 14:32 UTC. Time now 2015-Jul-01 15:15 UTC.
Position N 59°19' E 018°06'.

Type: Ship. MMSI: 311361000.

Date/timePositionNaut miles runAvg speedWind from/ knotsBaromVisibWave heightAir tempDewpointWater temp
2015-Jul-01 14:32N 59°19' E 018°06'0 0.0
2015-Jul-01 13:32N 59°19' E 018°06'0 0.0
2015-Jul-01 12:32N 59°19' E 018°06'0 0.0
2015-Jul-01 11:32N 59°19' E 018°06'0 0.0
2015-Jul-01 10:32N 59°19' E 018°06'0 0.0
2015-Jul-01 09:32N 59°19' E 018°06'0 0.0
2015-Jul-01 08:32N 59°19' E 018°06'0 0.0
2015-Jul-01 07:32N 59°19' E 018°06'0 0.0
2015-Jul-01 06:32N 59°19' E 018°06'3 2.4
2015-Jul-01 05:24N 59°20' E 018°11'11212.4
2015-Jun-30 20:20N 59°25' E 021°52'5519.5
2015-Jun-30 17:32N 59°38' E 023°36'2919.4
2015-Jun-30 16:04N 59°48' E 024°30'36 2.5
2015-Jun-30 01:33N 59°55' E 025°40'1514.6
2015-Jun-30 00:33N 59°59' E 026°08'1514.8
2015-Jun-29 23:33N 60°02' E 026°37'9513.5
2015-Jun-29 16:33N 59°58' E 029°46'1010.0
2015-Jun-29 15:33N 59°57' E 030°06'2 2.3
2015-Jun-29 14:31N 59°57' E 030°11'0 0.0
2015-Jun-29 13:31N 59°57' E 030°11'0 0.0
2015-Jun-29 12:28N 59°57' E 030°11'0 0.0
2015-Jun-29 11:31N 59°57' E 030°11'0 0.0
2015-Jun-29 10:32N 59°57' E 030°11'0 0.0
2015-Jun-29 09:32N 59°57' E 030°11'0 0.0
2015-Jun-29 08:32N 59°57' E 030°11'0 0.0
2015-Jun-29 07:32N 59°57' E 030°11'0 0.0
2015-Jun-29 06:32N 59°57' E 030°11'0 0.0
2015-Jun-29 05:32N 59°57' E 030°11'0 0.0
2015-Jun-29 04:32N 59°57' E 030°11'0 0.0
2015-Jun-29 03:32N 59°57' E 030°11'0 0.0
2015-Jun-29 02:32N 59°57' E 030°11'0 0.0
2015-Jun-29 01:32N 59°57' E 030°11'0 0.0
2015-Jun-29 00:32N 59°57' E 030°11'0 0.0
2015-Jun-28 23:32N 59°57' E 030°11'0 0.0
2015-Jun-28 22:32N 59°57' E 030°11'0 0.0
2015-Jun-28 21:32N 59°57' E 030°11'0 0.0
2015-Jun-28 20:32N 59°57' E 030°11'0 0.0
2015-Jun-28 19:32N 59°57' E 030°11'0 0.0
2015-Jun-28 18:32N 59°57' E 030°11'0 0.0
2015-Jun-28 17:32N 59°57' E 030°11'0 0.0
2015-Jun-28 16:32N 59°57' E 030°11'0 0.0
2015-Jun-28 15:32N 59°57' E 030°11'0 0.0
2015-Jun-28 14:32N 59°57' E 030°11'0 0.0
2015-Jun-28 13:32N 59°57' E 030°11'0 0.0
2015-Jun-28 12:29N 59°57' E 030°11'0 0.0
2015-Jun-28 11:32N 59°57' E 030°11'0 0.0
2015-Jun-28 10:32N 59°57' E 030°11'0 0.0
2015-Jun-28 09:32N 59°57' E 030°11'0 0.0
2015-Jun-28 08:32N 59°57' E 030°11'0 0.0
2015-Jun-28 07:32N 59°57' E 030°11'0 0.0
2015-Jun-28 06:32N 59°57' E 030°11'0 0.0
2015-Jun-28 05:32N 59°57' E 030°11'0 0.0
2015-Jun-28 04:32N 59°57' E 030°11'0 0.0
2015-Jun-28 03:32N 59°57' E 030°11'6 6.4
2015-Jun-28 02:33N 59°56' E 029°59'1010.1
2015-Jun-28 01:32N 59°60' E 029°40'6813.4
2015-Jun-27 20:30N 60°04' E 027°25'1515.2
2015-Jun-27 19:29N 59°58' E 026°56'1415.5
2015-Jun-27 18:33N 59°58' E 026°27'5316.1
2015-Jun-27 15:17N 59°41' E 024°48'1114.9
2015-Jun-27 14:33N 59°30' E 024°45'3 1.7
2015-Jun-27 12:33N 59°27' E 024°46'0 0.0
2015-Jun-27 11:18N 59°27' E 024°46'0 0.0
2015-Jun-27 10:27N 59°27' E 024°46'0 0.0
2015-Jun-27 08:07N 59°27' E 024°46'0 0.0
2015-Jun-27 07:24N 59°27' E 024°46'0 0.1
2015-Jun-27 05:33N 59°27' E 024°46'3213.4
2015-Jun-27 03:10N 59°29' E 023°43'1217.5
2015-Jun-27 02:30N 59°29' E 023°20'34419.9
2015-Jun-26 09:15N 55°36' E 015°29'1420.5
2015-Jun-26 08:33N 55°31' E 015°05'2719.0
2015-Jun-26 07:08N 55°14' E 014°28'1319.7
2015-Jun-26 06:28N 55°04' E 014°14'7618.9
2015-Jun-26 02:28N 54°30' E 012°16'1617.1
2015-Jun-26 01:33N 54°24' E 011°52'2019.7
2015-Jun-26 00:33N 54°32' E 011°21'2318.4
2015-Jun-25 23:18N 54°43' E 010°46'3818.1
2015-Jun-25 21:13N 55°20' E 011°02'5814.6
2015-Jun-25 17:16N 56°10' E 011°53'1419.5
2015-Jun-25 16:34N 56°13' E 012°17'1817.9
2015-Jun-25 15:33N 56°01' E 012°41'1616.2
2015-Jun-25 14:33N 55°45' E 012°40'3 3.4
2015-Jun-25 13:33N 55°42' E 012°36'0 0.0
2015-Jun-25 12:30N 55°42' E 012°36'0 0.0
2015-Jun-25 11:33N 55°42' E 012°36'0 0.0
2015-Jun-25 10:33N 55°42' E 012°36'0 0.0
2015-Jun-25 09:33N 55°42' E 012°36'0 0.0
2015-Jun-25 08:33N 55°42' E 012°36'0 0.0
2015-Jun-25 07:33N 55°42' E 012°36'0 0.0
2015-Jun-25 06:33N 55°42' E 012°36'0 0.0
2015-Jun-25 05:33N 55°42' E 012°36'0 0.2
2015-Jun-25 04:33N 55°42' E 012°36'9 8.7
2015-Jun-25 03:33N 55°50' E 012°43'1615.6
2015-Jun-25 02:33N 56°05' E 012°35'1818.2
2015-Jun-25 01:33N 56°15' E 012°08'1916.2
2015-Jun-25 00:24N 56°33' E 011°57'1618.7
2015-Jun-24 23:33N 56°48' E 011°50'2019.6
2015-Jun-24 22:33N 57°07' E 011°37'1919.4
2015-Jun-24 21:33N 57°25' E 011°25'1918.7
2015-Jun-24 20:33N 57°38' E 011°00'44717.4
2015-Jun-23 18:56N 52°10' E 002°13'446 8.9
2015-Jun-21 16:32N 57°45' E 010°47'  
Track history (hours):
 
Tides and Currents Weather Stations Pressure Air Temp Water Temp Dewpoint Dewpoint Depression Visibility Wind Speed Wind Dir Waves Ship Positions

Brilliance Of The Seas

Operator: Royal Caribbean Cruises Ltd

Last reported at 2015-Jul-01 14:32 UTC. Time now 2015-Jul-01 15:15 UTC.
Position N 59°19' E 018°06'.

Type: Ship. MMSI: 311361000.

Date/timePositionNaut miles runAvg speedWind from/ knotsBaromVisibWave heightAir tempDewpointWater temp
2015-Jul-01 14:32N 59°19' E 018°06'0 0.0
2015-Jul-01 13:32N 59°19' E 018°06'0 0.0
2015-Jul-01 12:32N 59°19' E 018°06'0 0.0
2015-Jul-01 11:32N 59°19' E 018°06'0 0.0
2015-Jul-01 10:32N 59°19' E 018°06'0 0.0
2015-Jul-01 09:32N 59°19' E 018°06'0 0.0
2015-Jul-01 08:32N 59°19' E 018°06'0 0.0
2015-Jul-01 07:32N 59°19' E 018°06'0 0.0
2015-Jul-01 06:32N 59°19' E 018°06'3 2.4
2015-Jul-01 05:24N 59°20' E 018°11'11212.4
2015-Jun-30 20:20N 59°25' E 021°52'5519.5
2015-Jun-30 17:32N 59°38' E 023°36'2919.4
2015-Jun-30 16:04N 59°48' E 024°30'36 2.5
2015-Jun-30 01:33N 59°55' E 025°40'1514.6
2015-Jun-30 00:33N 59°59' E 026°08'1514.8
2015-Jun-29 23:33N 60°02' E 026°37'9513.5
2015-Jun-29 16:33N 59°58' E 029°46'1010.0
2015-Jun-29 15:33N 59°57' E 030°06'2 2.3
2015-Jun-29 14:31N 59°57' E 030°11'0 0.0
2015-Jun-29 13:31N 59°57' E 030°11'0 0.0
2015-Jun-29 12:28N 59°57' E 030°11'0 0.0
2015-Jun-29 11:31N 59°57' E 030°11'0 0.0
2015-Jun-29 10:32N 59°57' E 030°11'0 0.0
2015-Jun-29 09:32N 59°57' E 030°11'0 0.0
2015-Jun-29 08:32N 59°57' E 030°11'0 0.0
2015-Jun-29 07:32N 59°57' E 030°11'0 0.0
2015-Jun-29 06:32N 59°57' E 030°11'0 0.0
2015-Jun-29 05:32N 59°57' E 030°11'0 0.0
2015-Jun-29 04:32N 59°57' E 030°11'0 0.0
2015-Jun-29 03:32N 59°57' E 030°11'0 0.0
2015-Jun-29 02:32N 59°57' E 030°11'0 0.0
2015-Jun-29 01:32N 59°57' E 030°11'0 0.0
2015-Jun-29 00:32N 59°57' E 030°11'0 0.0
2015-Jun-28 23:32N 59°57' E 030°11'0 0.0
2015-Jun-28 22:32N 59°57' E 030°11'0 0.0
2015-Jun-28 21:32N 59°57' E 030°11'0 0.0
2015-Jun-28 20:32N 59°57' E 030°11'0 0.0
2015-Jun-28 19:32N 59°57' E 030°11'0 0.0
2015-Jun-28 18:32N 59°57' E 030°11'0 0.0
2015-Jun-28 17:32N 59°57' E 030°11'0 0.0
2015-Jun-28 16:32N 59°57' E 030°11'0 0.0
2015-Jun-28 15:32N 59°57' E 030°11'0 0.0
2015-Jun-28 14:32N 59°57' E 030°11'0 0.0
2015-Jun-28 13:32N 59°57' E 030°11'0 0.0
2015-Jun-28 12:29N 59°57' E 030°11'0 0.0
2015-Jun-28 11:32N 59°57' E 030°11'0 0.0
2015-Jun-28 10:32N 59°57' E 030°11'0 0.0
2015-Jun-28 09:32N 59°57' E 030°11'0 0.0
2015-Jun-28 08:32N 59°57' E 030°11'0 0.0
2015-Jun-28 07:32N 59°57' E 030°11'0 0.0
2015-Jun-28 06:32N 59°57' E 030°11'0 0.0
2015-Jun-28 05:32N 59°57' E 030°11'0 0.0
2015-Jun-28 04:32N 59°57' E 030°11'0 0.0
2015-Jun-28 03:32N 59°57' E 030°11'6 6.4
2015-Jun-28 02:33N 59°56' E 029°59'1010.1
2015-Jun-28 01:32N 59°60' E 029°40'6813.4
2015-Jun-27 20:30N 60°04' E 027°25'1515.2
2015-Jun-27 19:29N 59°58' E 026°56'1415.5
2015-Jun-27 18:33N 59°58' E 026°27'5316.1
2015-Jun-27 15:17N 59°41' E 024°48'1114.9
2015-Jun-27 14:33N 59°30' E 024°45'3 1.7
2015-Jun-27 12:33N 59°27' E 024°46'0 0.0
2015-Jun-27 11:18N 59°27' E 024°46'0 0.0
2015-Jun-27 10:27N 59°27' E 024°46'0 0.0
2015-Jun-27 08:07N 59°27' E 024°46'0 0.0
2015-Jun-27 07:24N 59°27' E 024°46'0 0.1
2015-Jun-27 05:33N 59°27' E 024°46'3213.4
2015-Jun-27 03:10N 59°29' E 023°43'1217.5
2015-Jun-27 02:30N 59°29' E 023°20'34419.9
2015-Jun-26 09:15N 55°36' E 015°29'1420.5
2015-Jun-26 08:33N 55°31' E 015°05'2719.0
2015-Jun-26 07:08N 55°14' E 014°28'1319.7
2015-Jun-26 06:28N 55°04' E 014°14'7618.9
2015-Jun-26 02:28N 54°30' E 012°16'1617.1
2015-Jun-26 01:33N 54°24' E 011°52'2019.7
2015-Jun-26 00:33N 54°32' E 011°21'2318.4
2015-Jun-25 23:18N 54°43' E 010°46'3818.1
2015-Jun-25 21:13N 55°20' E 011°02'5814.6
2015-Jun-25 17:16N 56°10' E 011°53'1419.5
2015-Jun-25 16:34N 56°13' E 012°17'1817.9
2015-Jun-25 15:33N 56°01' E 012°41'1616.2
2015-Jun-25 14:33N 55°45' E 012°40'3 3.4
2015-Jun-25 13:33N 55°42' E 012°36'0 0.0
2015-Jun-25 12:30N 55°42' E 012°36'0 0.0
2015-Jun-25 11:33N 55°42' E 012°36'0 0.0
2015-Jun-25 10:33N 55°42' E 012°36'0 0.0
2015-Jun-25 09:33N 55°42' E 012°36'0 0.0
2015-Jun-25 08:33N 55°42' E 012°36'0 0.0
2015-Jun-25 07:33N 55°42' E 012°36'0 0.0
2015-Jun-25 06:33N 55°42' E 012°36'0 0.0
2015-Jun-25 05:33N 55°42' E 012°36'0 0.2
2015-Jun-25 04:33N 55°42' E 012°36'9 8.7
2015-Jun-25 03:33N 55°50' E 012°43'1615.6
2015-Jun-25 02:33N 56°05' E 012°35'1818.2
2015-Jun-25 01:33N 56°15' E 012°08'1916.2
2015-Jun-25 00:24N 56°33' E 011°57'1618.7
2015-Jun-24 23:33N 56°48' E 011°50'2019.6
2015-Jun-24 22:33N 57°07' E 011°37'1919.4
2015-Jun-24 21:33N 57°25' E 011°25'1918.7
2015-Jun-24 20:33N 57°38' E 011°00'44717.4
2015-Jun-23 18:56N 52°10' E 002°13'446 8.9
2015-Jun-21 16:32N 57°45' E 010°47'  

Dump ship's entire track history